sensor_id;sensor_type;location;lat;lon;timestamp;temperature;humidity
17341;DHT22;8788;49.930;8.660;2023-07-16T00:01:21;21.60;99.90
17341;DHT22;8788;49.930;8.660;2023-07-16T00:03:48;21.60;99.90
17341;DHT22;8788;49.930;8.660;2023-07-16T00:06:15;21.60;99.90
17341;DHT22;8788;49.930;8.660;2023-07-16T00:08:42;21.70;99.90
17341;DHT22;8788;49.930;8.660;2023-07-16T00:11:09;21.60;99.90
17341;DHT22;8788;49.930;8.660;2023-07-16T00:13:36;21.60;99.90
17341;DHT22;8788;49.930;8.660;2023-07-16T00:16:04;21.60;99.90
17341;DHT22;8788;49.930;8.660;2023-07-16T00:18:32;21.60;99.90
17341;DHT22;8788;49.930;8.660;2023-07-16T00:20:59;21.60;99.90
17341;DHT22;8788;49.930;8.660;2023-07-16T00:23:27;21.50;99.90
17341;DHT22;8788;49.930;8.660;2023-07-16T00:25:53;21.40;99.90
17341;DHT22;8788;49.930;8.660;2023-07-16T00:28:21;21.40;99.90
17341;DHT22;8788;49.930;8.660;2023-07-16T00:30:48;21.40;99.90
17341;DHT22;8788;49.930;8.660;2023-07-16T00:33:15;21.40;99.90
17341;DHT22;8788;49.930;8.660;2023-07-16T00:35:48;21.30;99.90
17341;DHT22;8788;49.930;8.660;2023-07-16T00:38:17;21.30;99.90
17341;DHT22;8788;49.930;8.660;2023-07-16T00:40:44;21.30;99.90
17341;DHT22;8788;49.930;8.660;2023-07-16T00:43:11;21.30;99.90
17341;DHT22;8788;49.930;8.660;2023-07-16T00:45:40;21.30;99.90
17341;DHT22;8788;49.930;8.660;2023-07-16T00:48:08;21.30;99.90
17341;DHT22;8788;49.930;8.660;2023-07-16T00:50:36;21.20;99.90
17341;DHT22;8788;49.930;8.660;2023-07-16T00:53:06;21.20;99.90
17341;DHT22;8788;49.930;8.660;2023-07-16T00:55:35;21.20;99.90
17341;DHT22;8788;49.930;8.660;2023-07-16T00:58:05;21.20;99.90
17341;DHT22;8788;49.930;8.660;2023-07-16T01:00:32;21.20;99.90
17341;DHT22;8788;49.930;8.660;2023-07-16T01:03:00;21.10;99.90
17341;DHT22;8788;49.930;8.660;2023-07-16T01:05:33;21.10;99.90
17341;DHT22;8788;49.930;8.660;2023-07-16T01:08:04;21.10;99.90
17341;DHT22;8788;49.930;8.660;2023-07-16T01:10:34;21.00;99.90
17341;DHT22;8788;49.930;8.660;2023-07-16T01:13:01;21.00;99.90
17341;DHT22;8788;49.930;8.660;2023-07-16T01:15:29;21.00;99.90
17341;DHT22;8788;49.930;8.660;2023-07-16T01:17:56;21.00;99.90
17341;DHT22;8788;49.930;8.660;2023-07-16T01:20:24;21.00;99.90
17341;DHT22;8788;49.930;8.660;2023-07-16T01:23:08;21.00;99.90
17341;DHT22;8788;49.930;8.660;2023-07-16T01:26:02;21.00;99.90
17341;DHT22;8788;49.930;8.660;2023-07-16T01:31:45;20.90;99.90
17341;DHT22;8788;49.930;8.660;2023-07-16T01:34:14;20.80;99.90
17341;DHT22;8788;49.930;8.660;2023-07-16T01:36:42;20.80;99.90
17341;DHT22;8788;49.930;8.660;2023-07-16T01:39:09;20.70;99.90
17341;DHT22;8788;49.930;8.660;2023-07-16T01:41:37;20.60;99.90
17341;DHT22;8788;49.930;8.660;2023-07-16T01:44:04;20.60;99.90
17341;DHT22;8788;49.930;8.660;2023-07-16T01:46:31;20.60;99.90
17341;DHT22;8788;49.930;8.660;2023-07-16T01:48:59;20.50;99.90
17341;DHT22;8788;49.930;8.660;2023-07-16T01:51:26;20.40;99.90
17341;DHT22;8788;49.930;8.660;2023-07-16T01:53:53;20.40;99.90
17341;DHT22;8788;49.930;8.660;2023-07-16T01:56:20;20.40;99.90
17341;DHT22;8788;49.930;8.660;2023-07-16T01:58:48;20.30;99.90
17341;DHT22;8788;49.930;8.660;2023-07-16T02:01:15;20.30;99.90
17341;DHT22;8788;49.930;8.660;2023-07-16T02:03:42;20.20;99.90
17341;DHT22;8788;49.930;8.660;2023-07-16T02:06:10;20.20;99.90
17341;DHT22;8788;49.930;8.660;2023-07-16T02:08:39;20.20;99.90
17341;DHT22;8788;49.930;8.660;2023-07-16T02:11:06;20.20;99.90
17341;DHT22;8788;49.930;8.660;2023-07-16T02:13:33;20.20;99.90
17341;DHT22;8788;49.930;8.660;2023-07-16T02:16:00;20.20;99.90
17341;DHT22;8788;49.930;8.660;2023-07-16T02:18:27;20.20;99.90
17341;DHT22;8788;49.930;8.660;2023-07-16T02:20:54;20.10;99.90
17341;DHT22;8788;49.930;8.660;2023-07-16T02:23:23;20.10;99.90
17341;DHT22;8788;49.930;8.660;2023-07-16T02:25:50;20.10;99.90
17341;DHT22;8788;49.930;8.660;2023-07-16T02:28:17;20.00;99.90
17341;DHT22;8788;49.930;8.660;2023-07-16T02:30:44;20.00;99.90
17341;DHT22;8788;49.930;8.660;2023-07-16T02:33:11;20.10;99.90
17341;DHT22;8788;49.930;8.660;2023-07-16T02:35:38;20.00;99.90
17341;DHT22;8788;49.930;8.660;2023-07-16T02:38:05;20.00;99.90
17341;DHT22;8788;49.930;8.660;2023-07-16T02:40:34;20.00;99.90
17341;DHT22;8788;49.930;8.660;2023-07-16T02:43:01;19.90;99.90
17341;DHT22;8788;49.930;8.660;2023-07-16T02:45:28;19.90;99.90
17341;DHT22;8788;49.930;8.660;2023-07-16T02:47:55;19.90;99.90
17341;DHT22;8788;49.930;8.660;2023-07-16T02:50:22;19.90;99.90
17341;DHT22;8788;49.930;8.660;2023-07-16T02:52:49;19.90;99.90
17341;DHT22;8788;49.930;8.660;2023-07-16T02:55:16;19.90;99.90
17341;DHT22;8788;49.930;8.660;2023-07-16T02:57:45;19.90;99.90
17341;DHT22;8788;49.930;8.660;2023-07-16T03:00:12;19.80;99.90
17341;DHT22;8788;49.930;8.660;2023-07-16T03:02:39;19.90;99.90
17341;DHT22;8788;49.930;8.660;2023-07-16T03:05:07;19.90;99.90
17341;DHT22;8788;49.930;8.660;2023-07-16T03:07:34;20.00;99.90
17341;DHT22;8788;49.930;8.660;2023-07-16T03:10:01;20.00;99.90
17341;DHT22;8788;49.930;8.660;2023-07-16T03:12:28;20.00;99.90
17341;DHT22;8788;49.930;8.660;2023-07-16T03:14:57;20.00;99.90
17341;DHT22;8788;49.930;8.660;2023-07-16T03:17:24;20.00;99.90
17341;DHT22;8788;49.930;8.660;2023-07-16T03:19:51;19.90;99.90
17341;DHT22;8788;49.930;8.660;2023-07-16T03:22:18;19.90;99.90
17341;DHT22;8788;49.930;8.660;2023-07-16T03:24:45;19.90;99.90
17341;DHT22;8788;49.930;8.660;2023-07-16T03:27:13;19.90;99.90
17341;DHT22;8788;49.930;8.660;2023-07-16T03:29:41;19.90;99.90
17341;DHT22;8788;49.930;8.660;2023-07-16T03:32:13;19.80;99.90
17341;DHT22;8788;49.930;8.660;2023-07-16T03:34:41;19.80;99.90
17341;DHT22;8788;49.930;8.660;2023-07-16T03:37:08;19.80;99.90
17341;DHT22;8788;49.930;8.660;2023-07-16T03:39:35;19.80;99.90
17341;DHT22;8788;49.930;8.660;2023-07-16T03:42:02;19.80;99.90
17341;DHT22;8788;49.930;8.660;2023-07-16T03:44:29;19.80;99.90
17341;DHT22;8788;49.930;8.660;2023-07-16T03:46:58;19.80;99.90
17341;DHT22;8788;49.930;8.660;2023-07-16T03:49:27;19.80;99.90
17341;DHT22;8788;49.930;8.660;2023-07-16T03:51:54;19.70;99.90
17341;DHT22;8788;49.930;8.660;2023-07-16T03:54:21;19.70;99.90
17341;DHT22;8788;49.930;8.660;2023-07-16T03:56:48;19.70;99.90
17341;DHT22;8788;49.930;8.660;2023-07-16T03:59:16;19.60;99.90
17341;DHT22;8788;49.930;8.660;2023-07-16T04:01:43;19.60;99.90
17341;DHT22;8788;49.930;8.660;2023-07-16T04:04:10;19.60;99.90
17341;DHT22;8788;49.930;8.660;2023-07-16T04:06:38;19.60;99.90
17341;DHT22;8788;49.930;8.660;2023-07-16T04:09:05;19.50;99.90
17341;DHT22;8788;49.930;8.660;2023-07-16T04:11:32;19.50;99.90
17341;DHT22;8788;49.930;8.660;2023-07-16T04:13:59;19.50;99.90
17341;DHT22;8788;49.930;8.660;2023-07-16T04:16:26;19.60;99.90
17341;DHT22;8788;49.930;8.660;2023-07-16T04:18:53;19.60;99.90
17341;DHT22;8788;49.930;8.660;2023-07-16T04:21:20;19.60;99.90
17341;DHT22;8788;49.930;8.660;2023-07-16T04:23:49;19.60;99.90
17341;DHT22;8788;49.930;8.660;2023-07-16T04:26:16;19.60;99.90
17341;DHT22;8788;49.930;8.660;2023-07-16T04:28:43;19.70;99.90
17341;DHT22;8788;49.930;8.660;2023-07-16T04:31:10;19.60;99.90
17341;DHT22;8788;49.930;8.660;2023-07-16T04:33:37;19.60;99.90
17341;DHT22;8788;49.930;8.660;2023-07-16T04:36:04;19.60;99.90
17341;DHT22;8788;49.930;8.660;2023-07-16T04:38:31;19.60;99.90
17341;DHT22;8788;49.930;8.660;2023-07-16T04:41:00;19.60;99.90
17341;DHT22;8788;49.930;8.660;2023-07-16T04:43:27;19.50;99.90
17341;DHT22;8788;49.930;8.660;2023-07-16T04:45:54;19.50;99.90
17341;DHT22;8788;49.930;8.660;2023-07-16T04:48:21;19.50;99.90
17341;DHT22;8788;49.930;8.660;2023-07-16T04:50:48;19.40;99.90
17341;DHT22;8788;49.930;8.660;2023-07-16T04:53:15;19.50;99.90
17341;DHT22;8788;49.930;8.660;2023-07-16T04:55:44;19.50;99.90
17341;DHT22;8788;49.930;8.660;2023-07-16T04:58:13;19.50;99.90
17341;DHT22;8788;49.930;8.660;2023-07-16T05:00:40;19.50;99.90
17341;DHT22;8788;49.930;8.660;2023-07-16T05:03:07;19.50;99.90
17341;DHT22;8788;49.930;8.660;2023-07-16T05:05:34;19.50;99.90
17341;DHT22;8788;49.930;8.660;2023-07-16T05:08:01;19.50;99.90
17341;DHT22;8788;49.930;8.660;2023-07-16T05:10:28;19.50;99.90
17341;DHT22;8788;49.930;8.660;2023-07-16T05:12:55;19.50;99.90
17341;DHT22;8788;49.930;8.660;2023-07-16T05:15:23;19.50;99.90
17341;DHT22;8788;49.930;8.660;2023-07-16T05:17:50;19.50;99.90
17341;DHT22;8788;49.930;8.660;2023-07-16T05:20:18;19.60;99.90
17341;DHT22;8788;49.930;8.660;2023-07-16T05:22:45;19.60;99.90
17341;DHT22;8788;49.930;8.660;2023-07-16T05:25:12;19.60;99.90
17341;DHT22;8788;49.930;8.660;2023-07-16T05:27:39;19.60;99.90
17341;DHT22;8788;49.930;8.660;2023-07-16T05:30:07;19.60;99.90
17341;DHT22;8788;49.930;8.660;2023-07-16T05:32:35;19.60;99.90
17341;DHT22;8788;49.930;8.660;2023-07-16T05:35:03;19.60;99.90
17341;DHT22;8788;49.930;8.660;2023-07-16T05:37:30;19.70;99.90
17341;DHT22;8788;49.930;8.660;2023-07-16T05:39:57;19.70;99.90
17341;DHT22;8788;49.930;8.660;2023-07-16T05:42:24;19.70;99.90
17341;DHT22;8788;49.930;8.660;2023-07-16T05:44:51;19.70;99.90
17341;DHT22;8788;49.930;8.660;2023-07-16T05:47:18;19.70;99.90
17341;DHT22;8788;49.930;8.660;2023-07-16T05:49:47;19.70;99.90
17341;DHT22;8788;49.930;8.660;2023-07-16T05:52:14;19.80;99.90
17341;DHT22;8788;49.930;8.660;2023-07-16T05:54:43;19.80;99.90
17341;DHT22;8788;49.930;8.660;2023-07-16T05:57:10;19.80;99.90
17341;DHT22;8788;49.930;8.660;2023-07-16T05:59:37;19.80;99.90
17341;DHT22;8788;49.930;8.660;2023-07-16T06:02:05;19.90;99.90
17341;DHT22;8788;49.930;8.660;2023-07-16T06:04:32;19.90;99.90
17341;DHT22;8788;49.930;8.660;2023-07-16T06:07:02;19.90;99.90
17341;DHT22;8788;49.930;8.660;2023-07-16T06:09:29;20.00;99.90
17341;DHT22;8788;49.930;8.660;2023-07-16T06:11:56;20.00;99.90
17341;DHT22;8788;49.930;8.660;2023-07-16T06:14:23;20.10;99.90
17341;DHT22;8788;49.930;8.660;2023-07-16T06:16:50;20.20;99.90
17341;DHT22;8788;49.930;8.660;2023-07-16T06:19:18;20.20;99.90
17341;DHT22;8788;49.930;8.660;2023-07-16T06:21:45;20.20;99.90
17341;DHT22;8788;49.930;8.660;2023-07-16T06:24:13;20.30;99.90
17341;DHT22;8788;49.930;8.660;2023-07-16T06:26:40;20.30;99.90
17341;DHT22;8788;49.930;8.660;2023-07-16T06:29:07;20.30;99.90
17341;DHT22;8788;49.930;8.660;2023-07-16T06:31:34;20.30;99.90
17341;DHT22;8788;49.930;8.660;2023-07-16T06:34:02;20.30;99.90
17341;DHT22;8788;49.930;8.660;2023-07-16T06:36:29;20.30;99.90
17341;DHT22;8788;49.930;8.660;2023-07-16T06:38:56;20.30;99.90
17341;DHT22;8788;49.930;8.660;2023-07-16T06:41:24;20.30;99.90
17341;DHT22;8788;49.930;8.660;2023-07-16T06:43:51;20.30;99.90
17341;DHT22;8788;49.930;8.660;2023-07-16T06:46:18;20.40;99.90
17341;DHT22;8788;49.930;8.660;2023-07-16T06:48:45;20.40;99.90
17341;DHT22;8788;49.930;8.660;2023-07-16T06:51:12;20.40;99.90
17341;DHT22;8788;49.930;8.660;2023-07-16T06:53:39;20.50;99.90
17341;DHT22;8788;49.930;8.660;2023-07-16T06:56:06;20.50;99.90
17341;DHT22;8788;49.930;8.660;2023-07-16T06:58:35;20.50;99.90
17341;DHT22;8788;49.930;8.660;2023-07-16T07:01:02;20.60;99.90
17341;DHT22;8788;49.930;8.660;2023-07-16T07:03:29;20.60;99.90
17341;DHT22;8788;49.930;8.660;2023-07-16T07:05:56;20.80;99.90
17341;DHT22;8788;49.930;8.660;2023-07-16T07:08:23;20.90;99.90
17341;DHT22;8788;49.930;8.660;2023-07-16T07:10:50;21.00;99.90
17341;DHT22;8788;49.930;8.660;2023-07-16T07:13:17;21.00;99.90
17341;DHT22;8788;49.930;8.660;2023-07-16T07:15:45;21.00;99.90
17341;DHT22;8788;49.930;8.660;2023-07-16T07:18:12;21.20;99.90
17341;DHT22;8788;49.930;8.660;2023-07-16T07:20:40;21.20;99.90
17341;DHT22;8788;49.930;8.660;2023-07-16T07:23:07;21.30;99.90
17341;DHT22;8788;49.930;8.660;2023-07-16T07:25:34;21.30;99.90
17341;DHT22;8788;49.930;8.660;2023-07-16T07:28:01;21.30;99.90
17341;DHT22;8788;49.930;8.660;2023-07-16T07:30:28;21.40;99.90
17341;DHT22;8788;49.930;8.660;2023-07-16T07:32:56;21.40;99.90
17341;DHT22;8788;49.930;8.660;2023-07-16T07:35:24;21.50;99.90
17341;DHT22;8788;49.930;8.660;2023-07-16T07:37:51;21.50;99.90
17341;DHT22;8788;49.930;8.660;2023-07-16T07:40:18;21.50;99.90
17341;DHT22;8788;49.930;8.660;2023-07-16T07:42:46;21.40;99.90
17341;DHT22;8788;49.930;8.660;2023-07-16T07:45:13;21.40;99.90
17341;DHT22;8788;49.930;8.660;2023-07-16T07:47:41;21.60;99.90
17341;DHT22;8788;49.930;8.660;2023-07-16T07:50:10;21.80;99.90
17341;DHT22;8788;49.930;8.660;2023-07-16T07:52:37;21.90;99.90
17341;DHT22;8788;49.930;8.660;2023-07-16T07:55:04;21.90;99.90
17341;DHT22;8788;49.930;8.660;2023-07-16T07:57:32;21.80;99.90
17341;DHT22;8788;49.930;8.660;2023-07-16T07:59:59;21.80;99.90
17341;DHT22;8788;49.930;8.660;2023-07-16T08:02:26;21.70;99.90
17341;DHT22;8788;49.930;8.660;2023-07-16T08:04:53;21.70;99.90
17341;DHT22;8788;49.930;8.660;2023-07-16T08:07:22;21.80;99.90
17341;DHT22;8788;49.930;8.660;2023-07-16T08:09:51;22.00;99.90
17341;DHT22;8788;49.930;8.660;2023-07-16T08:12:18;22.00;99.90
17341;DHT22;8788;49.930;8.660;2023-07-16T08:14:45;22.10;99.90
17341;DHT22;8788;49.930;8.660;2023-07-16T08:17:12;22.20;99.90
17341;DHT22;8788;49.930;8.660;2023-07-16T08:19:39;22.30;99.90
17341;DHT22;8788;49.930;8.660;2023-07-16T08:22:06;22.30;99.90
17341;DHT22;8788;49.930;8.660;2023-07-16T08:24:35;22.30;99.90
17341;DHT22;8788;49.930;8.660;2023-07-16T08:27:02;22.20;99.90
17341;DHT22;8788;49.930;8.660;2023-07-16T08:29:29;22.00;99.90
17341;DHT22;8788;49.930;8.660;2023-07-16T08:31:56;22.00;99.90
17341;DHT22;8788;49.930;8.660;2023-07-16T08:34:23;22.20;99.90
17341;DHT22;8788;49.930;8.660;2023-07-16T08:36:50;22.30;99.90
17341;DHT22;8788;49.930;8.660;2023-07-16T08:39:17;22.40;99.90
17341;DHT22;8788;49.930;8.660;2023-07-16T08:41:47;22.50;99.90
17341;DHT22;8788;49.930;8.660;2023-07-16T08:44:14;22.50;99.90
17341;DHT22;8788;49.930;8.660;2023-07-16T08:46:41;22.60;99.90
17341;DHT22;8788;49.930;8.660;2023-07-16T08:49:09;22.50;99.90
17341;DHT22;8788;49.930;8.660;2023-07-16T08:51:38;22.60;99.90
17341;DHT22;8788;49.930;8.660;2023-07-16T08:54:05;22.70;99.90
17341;DHT22;8788;49.930;8.660;2023-07-16T08:56:32;22.70;99.90
17341;DHT22;8788;49.930;8.660;2023-07-16T08:59:01;22.60;99.90
17341;DHT22;8788;49.930;8.660;2023-07-16T09:01:28;22.60;99.90
17341;DHT22;8788;49.930;8.660;2023-07-16T09:03:55;22.70;99.90
17341;DHT22;8788;49.930;8.660;2023-07-16T09:06:23;22.70;99.90
17341;DHT22;8788;49.930;8.660;2023-07-16T09:08:50;22.80;99.90
17341;DHT22;8788;49.930;8.660;2023-07-16T09:11:17;23.10;99.90
17341;DHT22;8788;49.930;8.660;2023-07-16T09:13:47;23.10;99.90
17341;DHT22;8788;49.930;8.660;2023-07-16T09:16:18;23.10;99.90
17341;DHT22;8788;49.930;8.660;2023-07-16T09:18:46;23.10;99.90
17341;DHT22;8788;49.930;8.660;2023-07-16T09:21:13;23.10;99.90
17341;DHT22;8788;49.930;8.660;2023-07-16T09:23:42;23.30;99.90
17341;DHT22;8788;49.930;8.660;2023-07-16T09:26:09;23.40;99.90
17341;DHT22;8788;49.930;8.660;2023-07-16T09:28:36;23.40;99.50
17341;DHT22;8788;49.930;8.660;2023-07-16T09:31:04;23.30;98.90
17341;DHT22;8788;49.930;8.660;2023-07-16T09:33:33;23.40;98.50
17341;DHT22;8788;49.930;8.660;2023-07-16T09:36:03;23.40;98.00
17341;DHT22;8788;49.930;8.660;2023-07-16T09:38:31;23.30;98.30
17341;DHT22;8788;49.930;8.660;2023-07-16T09:40:59;23.40;98.30
17341;DHT22;8788;49.930;8.660;2023-07-16T09:43:26;23.50;97.80
17341;DHT22;8788;49.930;8.660;2023-07-16T09:45:53;23.60;97.70
17341;DHT22;8788;49.930;8.660;2023-07-16T09:48:20;23.80;97.60
17341;DHT22;8788;49.930;8.660;2023-07-16T09:50:52;23.90;97.30
17341;DHT22;8788;49.930;8.660;2023-07-16T09:53:20;23.90;96.80
17341;DHT22;8788;49.930;8.660;2023-07-16T09:55:48;24.10;97.10
17341;DHT22;8788;49.930;8.660;2023-07-16T09:58:17;24.30;96.30
17341;DHT22;8788;49.930;8.660;2023-07-16T10:00:46;24.40;96.30
17341;DHT22;8788;49.930;8.660;2023-07-16T10:03:15;24.30;94.10
17341;DHT22;8788;49.930;8.660;2023-07-16T10:05:43;24.20;95.00
17341;DHT22;8788;49.930;8.660;2023-07-16T10:08:18;24.30;93.70
17341;DHT22;8788;49.930;8.660;2023-07-16T10:10:47;24.40;93.80
17341;DHT22;8788;49.930;8.660;2023-07-16T10:13:15;24.50;93.50
17341;DHT22;8788;49.930;8.660;2023-07-16T10:15:53;24.40;92.80
17341;DHT22;8788;49.930;8.660;2023-07-16T10:18:24;24.10;92.50
17341;DHT22;8788;49.930;8.660;2023-07-16T10:20:53;24.10;93.10
17341;DHT22;8788;49.930;8.660;2023-07-16T10:23:21;24.30;92.20
17341;DHT22;8788;49.930;8.660;2023-07-16T10:25:58;24.40;91.50
17341;DHT22;8788;49.930;8.660;2023-07-16T10:28:26;24.40;90.60
17341;DHT22;8788;49.930;8.660;2023-07-16T10:30:53;24.40;91.10
17341;DHT22;8788;49.930;8.660;2023-07-16T10:33:20;24.40;90.10
17341;DHT22;8788;49.930;8.660;2023-07-16T10:35:47;24.20;90.60
17341;DHT22;8788;49.930;8.660;2023-07-16T10:38:14;24.20;91.00
17341;DHT22;8788;49.930;8.660;2023-07-16T10:40:44;24.20;90.20
17341;DHT22;8788;49.930;8.660;2023-07-16T10:43:11;24.40;90.00
17341;DHT22;8788;49.930;8.660;2023-07-16T10:45:38;24.50;87.40
17341;DHT22;8788;49.930;8.660;2023-07-16T10:48:06;24.60;87.60
17341;DHT22;8788;49.930;8.660;2023-07-16T10:50:33;24.80;89.00
17341;DHT22;8788;49.930;8.660;2023-07-16T10:53:01;25.10;88.10
17341;DHT22;8788;49.930;8.660;2023-07-16T10:55:29;25.20;87.00
17341;DHT22;8788;49.930;8.660;2023-07-16T10:58:04;25.30;87.20
17341;DHT22;8788;49.930;8.660;2023-07-16T11:00:31;25.30;85.80
17341;DHT22;8788;49.930;8.660;2023-07-16T11:02:58;25.30;85.40
17341;DHT22;8788;49.930;8.660;2023-07-16T11:05:25;25.20;83.50
17341;DHT22;8788;49.930;8.660;2023-07-16T11:07:52;25.20;82.70
17341;DHT22;8788;49.930;8.660;2023-07-16T11:10:19;25.10;83.30
17341;DHT22;8788;49.930;8.660;2023-07-16T11:12:50;25.10;83.40
17341;DHT22;8788;49.930;8.660;2023-07-16T11:15:30;25.30;84.60
17341;DHT22;8788;49.930;8.660;2023-07-16T11:17:57;25.50;81.80
17341;DHT22;8788;49.930;8.660;2023-07-16T11:20:24;25.50;82.80
17341;DHT22;8788;49.930;8.660;2023-07-16T11:22:52;25.70;84.00
17341;DHT22;8788;49.930;8.660;2023-07-16T11:25:19;25.80;81.40
17341;DHT22;8788;49.930;8.660;2023-07-16T11:27:47;25.90;82.90
17341;DHT22;8788;49.930;8.660;2023-07-16T11:30:14;26.10;81.20
17341;DHT22;8788;49.930;8.660;2023-07-16T11:32:46;26.00;80.70
17341;DHT22;8788;49.930;8.660;2023-07-16T11:35:16;26.00;79.80
17341;DHT22;8788;49.930;8.660;2023-07-16T11:37:44;25.80;79.40
17341;DHT22;8788;49.930;8.660;2023-07-16T11:40:15;25.70;78.60
17341;DHT22;8788;49.930;8.660;2023-07-16T11:42:42;25.60;78.30
17341;DHT22;8788;49.930;8.660;2023-07-16T11:45:15;25.60;78.40
17341;DHT22;8788;49.930;8.660;2023-07-16T11:47:44;25.70;79.30
17341;DHT22;8788;49.930;8.660;2023-07-16T11:50:12;25.70;79.30
17341;DHT22;8788;49.930;8.660;2023-07-16T11:52:39;25.60;78.80
17341;DHT22;8788;49.930;8.660;2023-07-16T11:55:07;25.40;78.20
17341;DHT22;8788;49.930;8.660;2023-07-16T11:57:34;25.40;79.60
17341;DHT22;8788;49.930;8.660;2023-07-16T12:00:02;25.70;78.80
17341;DHT22;8788;49.930;8.660;2023-07-16T12:02:30;25.90;79.80
17341;DHT22;8788;49.930;8.660;2023-07-16T12:04:58;26.10;77.50
17341;DHT22;8788;49.930;8.660;2023-07-16T12:07:33;26.20;77.50
17341;DHT22;8788;49.930;8.660;2023-07-16T12:10:00;26.40;78.10
17341;DHT22;8788;49.930;8.660;2023-07-16T12:12:28;26.60;78.20
17341;DHT22;8788;49.930;8.660;2023-07-16T12:14:55;26.90;76.80
17341;DHT22;8788;49.930;8.660;2023-07-16T12:17:22;26.80;75.00
17341;DHT22;8788;49.930;8.660;2023-07-16T12:19:49;26.70;74.50
17341;DHT22;8788;49.930;8.660;2023-07-16T12:22:18;26.80;74.60
17341;DHT22;8788;49.930;8.660;2023-07-16T12:24:46;26.90;73.60
17341;DHT22;8788;49.930;8.660;2023-07-16T12:27:14;26.90;73.40
17341;DHT22;8788;49.930;8.660;2023-07-16T12:29:41;26.80;72.90
17341;DHT22;8788;49.930;8.660;2023-07-16T12:32:08;26.60;73.00
17341;DHT22;8788;49.930;8.660;2023-07-16T12:34:35;26.40;73.80
17341;DHT22;8788;49.930;8.660;2023-07-16T12:37:03;26.50;75.00
17341;DHT22;8788;49.930;8.660;2023-07-16T12:39:31;26.80;74.30
17341;DHT22;8788;49.930;8.660;2023-07-16T12:41:58;27.10;72.30
17341;DHT22;8788;49.930;8.660;2023-07-16T12:44:26;27.10;71.40
17341;DHT22;8788;49.930;8.660;2023-07-16T12:46:53;27.00;70.10
17341;DHT22;8788;49.930;8.660;2023-07-16T12:49:20;26.80;70.10
17341;DHT22;8788;49.930;8.660;2023-07-16T12:51:47;26.60;71.60
17341;DHT22;8788;49.930;8.660;2023-07-16T12:54:15;26.60;72.00
17341;DHT22;8788;49.930;8.660;2023-07-16T12:56:43;26.60;72.80
17341;DHT22;8788;49.930;8.660;2023-07-16T12:59:10;26.60;72.20
17341;DHT22;8788;49.930;8.660;2023-07-16T13:01:37;26.60;71.40
17341;DHT22;8788;49.930;8.660;2023-07-16T13:04:04;26.40;72.00
17341;DHT22;8788;49.930;8.660;2023-07-16T13:06:31;26.50;72.90
17341;DHT22;8788;49.930;8.660;2023-07-16T13:08:58;26.60;73.40
17341;DHT22;8788;49.930;8.660;2023-07-16T13:11:26;26.90;72.60
17341;DHT22;8788;49.930;8.660;2023-07-16T13:13:54;27.10;72.20
17341;DHT22;8788;49.930;8.660;2023-07-16T13:16:21;27.20;70.40
17341;DHT22;8788;49.930;8.660;2023-07-16T13:18:48;27.20;71.10
17341;DHT22;8788;49.930;8.660;2023-07-16T13:21:15;27.30;70.00
17341;DHT22;8788;49.930;8.660;2023-07-16T13:23:42;27.20;68.90
17341;DHT22;8788;49.930;8.660;2023-07-16T13:26:09;27.00;68.90
17341;DHT22;8788;49.930;8.660;2023-07-16T13:28:36;26.90;70.00
17341;DHT22;8788;49.930;8.660;2023-07-16T13:31:05;27.10;70.70
17341;DHT22;8788;49.930;8.660;2023-07-16T13:33:33;27.10;69.70
17341;DHT22;8788;49.930;8.660;2023-07-16T13:36:00;26.90;69.50
17341;DHT22;8788;49.930;8.660;2023-07-16T13:38:29;26.80;69.30
17341;DHT22;8788;49.930;8.660;2023-07-16T13:40:57;26.90;69.50
17341;DHT22;8788;49.930;8.660;2023-07-16T13:43:24;27.00;68.20
17341;DHT22;8788;49.930;8.660;2023-07-16T13:45:51;26.80;67.30
17341;DHT22;8788;49.930;8.660;2023-07-16T13:48:19;26.60;67.50
17341;DHT22;8788;49.930;8.660;2023-07-16T13:50:46;26.60;68.30
17341;DHT22;8788;49.930;8.660;2023-07-16T13:53:14;26.70;69.00
17341;DHT22;8788;49.930;8.660;2023-07-16T13:55:41;27.00;69.20
17341;DHT22;8788;49.930;8.660;2023-07-16T13:58:09;27.30;69.10
17341;DHT22;8788;49.930;8.660;2023-07-16T14:00:36;27.50;69.10
17341;DHT22;8788;49.930;8.660;2023-07-16T14:03:03;27.60;68.30
17341;DHT22;8788;49.930;8.660;2023-07-16T14:05:32;27.70;67.70
17341;DHT22;8788;49.930;8.660;2023-07-16T14:08:04;27.70;67.70
17341;DHT22;8788;49.930;8.660;2023-07-16T14:10:31;27.80;67.30
17341;DHT22;8788;49.930;8.660;2023-07-16T14:12:58;27.70;66.30
17341;DHT22;8788;49.930;8.660;2023-07-16T14:15:25;27.40;66.00
17341;DHT22;8788;49.930;8.660;2023-07-16T14:17:52;27.30;67.00
17341;DHT22;8788;49.930;8.660;2023-07-16T14:20:19;27.40;67.20
17341;DHT22;8788;49.930;8.660;2023-07-16T14:22:48;27.50;69.50
17341;DHT22;8788;49.930;8.660;2023-07-16T14:25:15;27.60;66.40
17341;DHT22;8788;49.930;8.660;2023-07-16T14:27:42;27.50;66.80
17341;DHT22;8788;49.930;8.660;2023-07-16T14:30:10;27.50;64.60
17341;DHT22;8788;49.930;8.660;2023-07-16T14:32:37;27.20;64.90
17341;DHT22;8788;49.930;8.660;2023-07-16T14:35:05;27.20;66.00
17341;DHT22;8788;49.930;8.660;2023-07-16T14:37:32;27.30;65.60
17341;DHT22;8788;49.930;8.660;2023-07-16T14:40:00;27.40;65.90
17341;DHT22;8788;49.930;8.660;2023-07-16T14:42:30;27.60;65.70
17341;DHT22;8788;49.930;8.660;2023-07-16T14:44:58;27.70;65.00
17341;DHT22;8788;49.930;8.660;2023-07-16T14:47:25;27.80;64.80
17341;DHT22;8788;49.930;8.660;2023-07-16T14:49:52;27.80;63.00
17341;DHT22;8788;49.930;8.660;2023-07-16T14:52:19;27.60;63.20
17341;DHT22;8788;49.930;8.660;2023-07-16T14:54:46;27.60;63.80
17341;DHT22;8788;49.930;8.660;2023-07-16T14:57:15;27.70;64.20
17341;DHT22;8788;49.930;8.660;2023-07-16T14:59:42;27.70;64.10
17341;DHT22;8788;49.930;8.660;2023-07-16T15:02:10;27.80;64.30
17341;DHT22;8788;49.930;8.660;2023-07-16T15:04:37;27.80;63.00
17341;DHT22;8788;49.930;8.660;2023-07-16T15:07:05;27.90;62.20
17341;DHT22;8788;49.930;8.660;2023-07-16T15:09:32;27.80;62.80
17341;DHT22;8788;49.930;8.660;2023-07-16T15:11:59;27.70;62.40
17341;DHT22;8788;49.930;8.660;2023-07-16T15:14:28;27.80;63.20
17341;DHT22;8788;49.930;8.660;2023-07-16T15:16:55;27.90;63.90
17341;DHT22;8788;49.930;8.660;2023-07-16T15:19:22;28.20;63.30
17341;DHT22;8788;49.930;8.660;2023-07-16T15:21:49;28.30;63.00
17341;DHT22;8788;49.930;8.660;2023-07-16T15:24:16;28.30;63.20
17341;DHT22;8788;49.930;8.660;2023-07-16T15:26:43;28.30;62.40
17341;DHT22;8788;49.930;8.660;2023-07-16T15:29:10;28.30;62.80
17341;DHT22;8788;49.930;8.660;2023-07-16T15:31:38;28.50;63.40
17341;DHT22;8788;49.930;8.660;2023-07-16T15:34:05;28.60;63.20
17341;DHT22;8788;49.930;8.660;2023-07-16T15:36:32;28.70;61.30
17341;DHT22;8788;49.930;8.660;2023-07-16T15:38:59;28.70;62.20
17341;DHT22;8788;49.930;8.660;2023-07-16T15:41:26;28.80;62.30
17341;DHT22;8788;49.930;8.660;2023-07-16T15:43:54;28.70;61.40
17341;DHT22;8788;49.930;8.660;2023-07-16T15:46:21;28.40;62.00
17341;DHT22;8788;49.930;8.660;2023-07-16T15:48:49;28.40;61.80
17341;DHT22;8788;49.930;8.660;2023-07-16T15:51:17;28.40;61.70